Time;durP1;ratioP1;P1;durP2;ratioP2;P2;SDS_P1;SDS_P2;PMS_P1;PMS_P2;Temp;Humidity;BMP_temperature;BMP_pressure;BME280_temperature;BME280_humidity;BME280_pressure;Samples;Min_cycle;Max_cycle;Signal;HPM_P1;HPM_P2
2022/02/26 00:01:45;;;;;;;11.73;2.40;;;5.20;83.30;;;;;;5053048;28;20021;-46
2022/02/26 00:04:11;;;;;;;12.00;2.28;;;5.20;83.30;;;;;;5052834;28;20519;-43
2022/02/26 00:06:36;;;;;;;10.55;2.25;;;5.20;83.40;;;;;;5035201;28;20037;-45
2022/02/26 00:09:06;;;;;;;12.30;2.30;;;5.20;83.50;;;;;;5052846;28;20031;-45
2022/02/26 00:11:33;;;;;;;12.10;2.42;;;5.20;83.50;;;;;;5052770;28;20094;-48
2022/02/26 00:13:59;;;;;;;10.93;2.78;;;5.10;83.40;;;;;;5052811;28;20047;-46
2022/02/26 00:16:24;;;;;;;9.10;2.33;;;5.10;83.40;;;;;;5051408;28;20036;-44
2022/02/26 00:18:50;;;;;;;8.57;2.08;;;5.10;83.50;;;;;;5052916;28;20017;-45
2022/02/26 00:21:16;;;;;;;11.98;2.88;;;5.10;83.50;;;;;;5052824;28;20027;-46
2022/02/26 00:23:43;;;;;;;12.80;2.40;;;5.10;83.50;;;;;;5052661;28;20040;-48
2022/02/26 00:26:09;;;;;;;10.38;2.17;;;5.10;83.60;;;;;;5052643;28;20021;-46
2022/02/26 00:28:35;;;;;;;11.00;2.50;;;5.00;83.60;;;;;;5052461;28;20021;-46
2022/02/26 00:31:00;;;;;;;10.95;2.40;;;5.10;83.70;;;;;;5052563;28;20083;-45
2022/02/26 00:33:26;;;;;;;9.85;2.20;;;5.10;83.70;;;;;;5052431;28;20032;-47
2022/02/26 00:35:52;;;;;;;11.38;2.70;;;5.00;83.70;;;;;;5052553;28;20079;-47
2022/02/26 00:38:18;;;;;;;9.57;2.28;;;5.00;83.70;;;;;;5052596;28;20053;-45
2022/02/26 00:40:44;;;;;;;13.02;2.53;;;5.00;83.70;;;;;;5052504;28;20057;-44
2022/02/26 00:43:09;;;;;;;9.80;2.20;;;4.90;83.70;;;;;;5052418;28;20534;-44
2022/02/26 00:45:35;;;;;;;18.92;3.35;;;4.90;83.80;;;;;;5052181;28;20049;-44
2022/02/26 00:48:00;;;;;;;10.27;2.60;;;4.90;83.80;;;;;;5052743;28;20025;-46
2022/02/26 00:50:26;;;;;;;14.07;2.70;;;4.90;83.90;;;;;;5052347;28;20108;-45
2022/02/26 00:52:52;;;;;;;9.30;2.65;;;4.90;84.00;;;;;;5052322;28;20082;-45
2022/02/26 00:55:17;;;;;;;11.73;2.42;;;4.80;84.00;;;;;;5052330;28;20032;-46
2022/02/26 00:57:43;;;;;;;9.65;2.42;;;4.80;84.00;;;;;;5051020;28;20035;-45
2022/02/26 01:00:10;;;;;;;9.82;2.25;;;4.80;84.00;;;;;;5052308;28;20013;-49
2022/02/26 01:02:36;;;;;;;9.70;2.38;;;4.80;84.10;;;;;;5052577;28;20021;-48
2022/02/26 01:05:02;;;;;;;11.13;2.65;;;4.80;84.70;;;;;;5052261;28;20362;-44
2022/02/26 01:07:28;;;;;;;10.60;2.60;;;4.80;84.20;;;;;;5052213;28;20025;-44
2022/02/26 01:09:54;;;;;;;11.48;2.50;;;4.80;84.20;;;;;;5052177;28;20028;-44
2022/02/26 01:12:20;;;;;;;9.75;2.22;;;4.80;84.80;;;;;;5052444;28;20461;-44
2022/02/26 01:14:45;;;;;;;12.23;2.63;;;4.80;84.30;;;;;;5052159;28;20329;-49
2022/02/26 01:17:13;;;;;;;11.98;2.63;;;4.80;84.30;;;;;;5052167;28;20021;-44
2022/02/26 01:19:39;;;;;;;10.38;2.30;;;4.70;84.30;;;;;;5052355;28;20017;-47
2022/02/26 01:22:06;;;;;;;11.88;2.47;;;4.70;84.30;;;;;;5052325;28;20527;-50
2022/02/26 01:24:32;;;;;;;11.55;2.65;;;4.70;84.40;;;;;;5052333;28;20017;-45
2022/02/26 01:26:57;;;;;;;9.55;2.70;;;4.70;84.40;;;;;;5052040;28;20025;-45
2022/02/26 01:29:23;;;;;;;9.25;1.90;;;4.70;84.40;;;;;;5052047;28;20499;-45
2022/02/26 01:31:49;;;;;;;10.55;2.80;;;4.70;84.40;;;;;;5054319;28;20067;-44
2022/02/26 01:34:15;;;;;;;8.35;2.30;;;4.70;84.50;;;;;;5055621;28;20488;-46
2022/02/26 01:36:40;;;;;;;9.40;3.10;;;4.60;84.40;;;;;;5055614;28;20048;-46
2022/02/26 01:39:08;;;;;;;8.52;2.53;;;4.60;84.40;;;;;;5055895;28;20472;-45
2022/02/26 01:41:34;;;;;;;7.40;2.15;;;4.60;84.50;;;;;;5055566;28;20477;-45
2022/02/26 01:44:00;;;;;;;9.10;2.47;;;4.50;84.50;;;;;;5055502;28;20025;-45
2022/02/26 01:46:26;;;;;;;7.47;2.33;;;4.50;84.50;;;;;;5055327;28;20045;-45
2022/02/26 01:48:52;;;;;;;10.10;2.58;;;4.40;84.50;;;;;;5055673;28;20043;-46
2022/02/26 01:51:18;;;;;;;11.20;2.83;;;4.40;84.60;;;;;;5055417;28;20436;-44
2022/02/26 01:53:45;;;;;;;7.72;2.47;;;4.40;84.60;;;;;;5054415;28;20483;-45
2022/02/26 01:56:11;;;;;;;9.93;2.92;;;4.40;84.60;;;;;;5053826;28;20432;-44
2022/02/26 01:58:38;;;;;;;10.10;2.47;;;4.30;84.60;;;;;;5055166;28;20079;-45
2022/02/26 02:01:05;;;;;;;10.52;2.35;;;4.30;84.60;;;;;;5055261;28;20017;-47
2022/02/26 02:03:31;;;;;;;15.02;2.72;;;4.30;84.70;;;;;;5055089;28;20426;-48
2022/02/26 02:06:00;;;;;;;8.55;2.90;;;4.30;84.70;;;;;;5055107;28;20025;-46
2022/02/26 02:08:26;;;;;;;11.63;2.60;;;4.30;84.70;;;;;;5054928;28;20039;-47
2022/02/26 02:10:54;;;;;;;11.38;2.53;;;4.20;84.70;;;;;;5054969;28;20036;-46
2022/02/26 02:13:21;;;;;;;7.63;2.33;;;4.20;84.70;;;;;;5054985;28;20116;-45
2022/02/26 02:15:47;;;;;;;9.65;2.80;;;4.20;84.70;;;;;;5055188;28;20060;-45
2022/02/26 02:18:15;;;;;;;10.18;3.17;;;4.20;84.70;;;;;;5053515;28;20086;-45
2022/02/26 02:20:42;;;;;;;8.32;2.40;;;4.20;84.80;;;;;;5054854;28;20040;-45
2022/02/26 02:23:08;;;;;;;11.00;3.03;;;4.20;84.80;;;;;;5055060;28;20361;-48
2022/02/26 02:25:36;;;;;;;7.22;2.28;;;4.20;84.80;;;;;;5054841;28;20128;-46
2022/02/26 02:28:05;;;;;;;9.32;2.50;;;4.20;84.90;;;;;;5054678;28;20127;-45
2022/02/26 02:30:31;;;;;;;7.53;2.40;;;4.20;84.90;;;;;;5054577;28;20078;-46
2022/02/26 02:32:58;;;;;;;9.40;2.72;;;4.10;84.80;;;;;;5054538;28;20048;-46
2022/02/26 02:35:28;;;;;;;7.55;2.85;;;4.10;84.80;;;;;;5054511;28;20481;-46
2022/02/26 02:37:54;;;;;;;13.98;2.47;;;4.10;84.80;;;;;;5054468;28;20037;-48
2022/02/26 02:40:20;;;;;;;8.10;2.42;;;4.00;84.90;;;;;;5054466;28;20021;-45
2022/02/26 02:42:46;;;;;;;7.47;2.58;;;3.90;84.90;;;;;;5053438;28;20442;-45
2022/02/26 02:45:12;;;;;;;10.43;2.50;;;3.90;85.00;;;;;;5054245;28;20047;-44
2022/02/26 02:47:37;;;;;;;8.88;2.63;;;3.90;85.00;;;;;;5054408;28;20090;-45
2022/02/26 02:50:04;;;;;;;8.40;2.60;;;3.90;85.00;;;;;;5054329;28;20076;-46
2022/02/26 02:52:29;;;;;;;8.10;2.65;;;3.80;84.90;;;;;;5054206;28;20087;-46
2022/02/26 02:54:55;;;;;;;8.38;2.50;;;3.80;84.90;;;;;;5054245;28;20440;-45
2022/02/26 02:57:20;;;;;;;10.15;2.67;;;3.80;84.90;;;;;;5054027;28;20032;-45
2022/02/26 02:59:46;;;;;;;8.95;2.70;;;3.80;84.90;;;;;;5054189;28;20029;-47
2022/02/26 03:02:12;;;;;;;8.45;3.03;;;3.80;84.90;;;;;;5052747;28;20120;-42
2022/02/26 03:04:37;;;;;;;9.20;2.33;;;3.70;84.90;;;;;;5053992;28;20032;-48
2022/02/26 03:07:03;;;;;;;6.03;2.58;;;3.70;84.90;;;;;;5053904;28;20502;-46
2022/02/26 03:09:28;;;;;;;11.50;2.50;;;3.70;84.90;;;;;;5054191;28;20053;-46
2022/02/26 03:11:54;;;;;;;6.82;2.53;;;3.60;84.90;;;;;;5053801;28;20389;-45
2022/02/26 03:14:20;;;;;;;10.20;2.63;;;3.70;84.90;;;;;;5054065;28;20118;-46
2022/02/26 03:16:45;;;;;;;9.95;2.67;;;3.60;84.90;;;;;;5053802;28;20029;-45
2022/02/26 03:19:11;;;;;;;10.68;2.92;;;3.60;84.90;;;;;;5054027;28;20029;-45
2022/02/26 03:21:39;;;;;;;8.85;2.78;;;3.60;84.90;;;;;;5053713;28;20017;-44
2022/02/26 03:24:06;;;;;;;9.45;3.03;;;3.60;84.90;;;;;;5053579;28;20032;-46
2022/02/26 03:26:33;;;;;;;11.05;2.92;;;3.60;84.90;;;;;;5053794;28;20559;-44
2022/02/26 03:28:58;;;;;;;13.23;3.20;;;3.50;84.80;;;;;;5053873;28;20029;-45
2022/02/26 03:31:24;;;;;;;7.05;2.80;;;3.50;84.90;;;;;;5053481;28;20362;-44
2022/02/26 03:33:50;;;;;;;9.05;3.00;;;3.50;84.90;;;;;;5053253;28;20116;-46
2022/02/26 03:36:15;;;;;;;11.35;2.78;;;3.50;85.00;;;;;;5053278;28;20082;-44
2022/02/26 03:38:42;;;;;;;8.10;2.97;;;3.40;84.90;;;;;;5053299;28;20432;-43
2022/02/26 03:41:10;;;;;;;7.15;2.58;;;3.40;85.00;;;;;;5053513;28;20025;-44
2022/02/26 03:43:36;;;;;;;9.27;3.08;;;3.40;85.00;;;;;;5053432;28;20017;-46
2022/02/26 03:46:01;;;;;;;7.03;2.88;;;3.50;85.10;;;;;;5052899;28;20138;-44
2022/02/26 03:48:27;;;;;;;7.97;2.95;;;3.50;85.00;;;;;;5053179;28;20032;-45
2022/02/26 03:50:52;;;;;;;8.02;3.03;;;3.50;85.00;;;;;;5053221;28;20086;-45
2022/02/26 03:53:18;;;;;;;11.00;2.92;;;3.50;85.00;;;;;;5052799;28;20100;-47
2022/02/26 03:55:43;;;;;;;12.02;3.90;;;3.40;85.10;;;;;;5053168;28;20435;-44
2022/02/26 03:58:09;;;;;;;8.68;3.30;;;3.40;85.10;;;;;;5052968;28;20492;-45
2022/02/26 04:00:35;;;;;;;10.40;3.67;;;3.40;85.20;;;;;;5052868;28;20032;-48
2022/02/26 04:03:00;;;;;;;11.60;3.38;;;3.40;85.20;;;;;;5052970;28;20393;-45
2022/02/26 04:05:26;;;;;;;8.23;3.35;;;3.40;85.20;;;;;;5052889;28;20021;-45
2022/02/26 04:07:51;;;;;;;12.95;3.58;;;3.40;85.30;;;;;;5052892;28;20079;-48
2022/02/26 04:10:17;;;;;;;10.02;4.07;;;3.40;85.30;;;;;;5052793;28;20033;-45
2022/02/26 04:12:42;;;;;;;8.18;3.70;;;3.40;85.30;;;;;;5052811;28;20404;-47
2022/02/26 04:15:09;;;;;;;11.20;4.00;;;3.40;85.30;;;;;;5052740;28;20032;-46
2022/02/26 04:17:34;;;;;;;12.90;4.55;;;3.40;85.30;;;;;;5052678;28;20553;-46
2022/02/26 04:20:00;;;;;;;14.55;4.32;;;3.40;85.30;;;;;;5052746;28;20048;-46
2022/02/26 04:22:25;;;;;;;14.65;4.50;;;3.40;85.40;;;;;;5052646;28;20029;-45
2022/02/26 04:24:51;;;;;;;12.07;4.53;;;3.40;85.40;;;;;;5052730;28;20033;-50
2022/02/26 04:27:17;;;;;;;14.52;4.18;;;3.40;85.50;;;;;;5051383;28;20032;-47
2022/02/26 04:29:42;;;;;;;11.75;4.85;;;3.40;85.60;;;;;;5052943;28;20033;-48
2022/02/26 04:32:08;;;;;;;12.57;4.60;;;3.40;85.70;;;;;;5052584;28;20040;-47
2022/02/26 04:34:33;;;;;;;11.63;5.13;;;3.30;85.70;;;;;;5052461;28;20060;-45
2022/02/26 04:36:59;;;;;;;14.55;5.10;;;3.30;85.80;;;;;;5052626;28;20095;-45
2022/02/26 04:39:25;;;;;;;14.02;5.35;;;3.30;85.90;;;;;;5052500;28;20083;-42
2022/02/26 04:41:51;;;;;;;14.23;5.05;;;3.30;86.00;;;;;;5052640;28;20111;-49
2022/02/26 04:44:16;;;;;;;14.77;5.30;;;3.30;86.00;;;;;;5051468;28;20056;-47
2022/02/26 04:46:42;;;;;;;13.45;4.93;;;3.30;86.10;;;;;;5052427;28;20129;-46
2022/02/26 04:49:07;;;;;;;12.90;5.07;;;3.40;86.10;;;;;;5052667;28;20037;-47
2022/02/26 04:51:33;;;;;;;13.35;4.82;;;3.40;86.20;;;;;;5052374;28;20531;-48
2022/02/26 04:53:59;;;;;;;15.18;4.97;;;3.40;86.20;;;;;;5052384;28;20044;-50
2022/02/26 04:56:24;;;;;;;20.65;5.28;;;3.50;86.20;;;;;;5052340;28;20032;-46
2022/02/26 04:58:50;;;;;;;8.07;4.57;;;3.50;86.20;;;;;;5051139;28;20029;-49
2022/02/26 05:01:15;;;;;;;12.00;4.80;;;3.60;86.80;;;;;;5052385;28;20021;-47
2022/02/26 05:03:43;;;;;;;29.70;5.43;;;3.60;86.10;;;;;;5052447;28;20071;-47
2022/02/26 05:06:09;;;;;;;22.13;5.38;;;3.70;86.00;;;;;;5053862;28;20510;-45
2022/02/26 05:08:34;;;;;;;42.15;5.70;;;3.70;85.90;;;;;;5056179;28;20025;-50
2022/02/26 05:11:00;;;;;;;34.28;5.32;;;3.70;85.90;;;;;;5056025;28;20029;-46
2022/02/26 05:13:26;;;;;;;38.05;5.45;;;3.70;85.90;;;;;;5054665;28;20388;-48
2022/02/26 05:15:51;;;;;;;19.90;4.70;;;3.70;85.90;;;;;;5056270;28;20468;-45
2022/02/26 05:18:18;;;;;;;19.17;4.63;;;3.60;85.90;;;;;;5055912;28;20117;-45
2022/02/26 05:20:44;;;;;;;42.63;5.78;;;3.60;86.10;;;;;;5055959;28;20025;-46
2022/02/26 05:23:09;;;;;;;33.33;5.18;;;3.60;86.10;;;;;;5054564;28;20025;-45
2022/02/26 05:25:35;;;;;;;20.27;4.78;;;3.60;86.10;;;;;;5055893;28;20017;-46
2022/02/26 05:28:01;;;;;;;18.45;5.05;;;3.60;86.10;;;;;;5055991;28;20033;-49
2022/02/26 05:30:27;;;;;;;19.85;5.15;;;3.60;86.10;;;;;;5055825;28;20028;-50
2022/02/26 05:32:53;;;;;;;32.33;5.03;;;3.70;86.10;;;;;;5056096;28;20086;-45
2022/02/26 05:35:18;;;;;;;18.73;4.97;;;3.60;86.00;;;;;;5055988;28;20481;-50
2022/02/26 05:37:44;;;;;;;15.60;4.43;;;3.70;86.00;;;;;;5055629;28;20481;-49
2022/02/26 05:40:10;;;;;;;28.88;5.35;;;3.70;86.00;;;;;;5055964;28;20380;-45
2022/02/26 05:42:36;;;;;;;37.80;5.43;;;3.70;86.00;;;;;;5055591;28;20021;-46
2022/02/26 05:45:02;;;;;;;40.95;4.85;;;3.60;85.90;;;;;;5055443;28;20474;-47
2022/02/26 05:47:29;;;;;;;22.65;4.63;;;3.60;86.00;;;;;;5054336;28;20044;-47
2022/02/26 05:49:54;;;;;;;13.00;4.70;;;3.50;85.90;;;;;;5055837;28;20032;-45
2022/02/26 05:52:20;;;;;;;28.33;4.43;;;3.50;86.00;;;;;;5055351;28;20115;-46
2022/02/26 05:54:46;;;;;;;19.58;4.60;;;3.50;86.10;;;;;;5055454;28;20029;-45
2022/02/26 05:57:11;;;;;;;34.15;4.95;;;3.50;86.10;;;;;;5055281;28;20079;-46
2022/02/26 05:59:37;;;;;;;34.85;5.20;;;3.40;86.10;;;;;;5055365;28;20033;-47
2022/02/26 06:02:03;;;;;;;26.60;4.60;;;3.40;86.10;;;;;;5055407;28;20043;-44
2022/02/26 06:04:29;;;;;;;12.20;4.43;;;3.30;86.00;;;;;;5055299;28;20029;-45
2022/02/26 06:06:55;;;;;;;8.15;4.20;;;3.30;86.10;;;;;;5055334;28;20029;-46
2022/02/26 06:09:20;;;;;;;20.38;4.95;;;3.30;86.20;;;;;;5055152;28;20130;-47
2022/02/26 06:11:46;;;;;;;17.33;4.43;;;3.20;86.10;;;;;;5055157;28;20025;-44
2022/02/26 06:14:11;;;;;;;15.40;4.50;;;3.30;86.20;;;;;;5054990;28;20111;-46
2022/02/26 06:16:37;;;;;;;12.10;4.90;;;3.20;86.10;;;;;;5053682;28;20128;-45
2022/02/26 06:19:02;;;;;;;15.07;4.80;;;3.20;86.20;;;;;;5054896;28;20037;-46
2022/02/26 06:21:28;;;;;;;17.65;4.22;;;3.20;86.20;;;;;;5054896;28;20027;-45
2022/02/26 06:23:54;;;;;;;10.77;4.22;;;3.20;86.10;;;;;;5054843;28;20075;-48
2022/02/26 06:26:19;;;;;;;7.70;3.92;;;3.20;86.10;;;;;;5054820;28;20456;-45
2022/02/26 06:28:45;;;;;;;13.70;4.13;;;3.10;86.10;;;;;;5054849;28;20021;-46
2022/02/26 06:31:10;;;;;;;14.60;4.68;;;3.10;86.20;;;;;;5054672;28;20028;-45
2022/02/26 06:33:36;;;;;;;11.30;4.88;;;3.10;86.10;;;;;;5054605;28;20029;-45
2022/02/26 06:36:02;;;;;;;6.82;4.53;;;3.10;86.10;;;;;;5054638;28;20033;-48
2022/02/26 06:38:27;;;;;;;9.85;5.30;;;3.10;86.10;;;;;;5054421;28;20029;-47
2022/02/26 06:40:53;;;;;;;12.52;5.25;;;3.10;86.00;;;;;;5054600;28;20059;-45
2022/02/26 06:43:19;;;;;;;12.77;5.55;;;3.10;86.10;;;;;;5054394;28;20017;-46
2022/02/26 06:45:44;;;;;;;11.70;4.90;;;3.10;86.10;;;;;;5054291;28;20455;-43
2022/02/26 06:48:10;;;;;;;17.23;5.35;;;3.10;86.10;;;;;;5054577;28;20108;-45
2022/02/26 06:50:36;;;;;;;10.15;5.65;;;3.10;86.10;;;;;;5054540;28;20040;-45
2022/02/26 06:53:02;;;;;;;9.45;5.05;;;3.10;86.10;;;;;;5054422;28;20036;-45
2022/02/26 06:55:27;;;;;;;6.95;5.05;;;3.10;86.10;;;;;;5054600;28;20066;-45
2022/02/26 06:57:53;;;;;;;9.07;4.88;;;3.00;86.10;;;;;;5054194;28;20420;-45
2022/02/26 07:00:19;;;;;;;9.50;5.95;;;3.10;86.10;;;;;;5054229;28;20037;-46
2022/02/26 07:02:45;;;;;;;8.43;5.47;;;3.10;86.10;;;;;;5054472;28;20028;-45
2022/02/26 07:05:10;;;;;;;8.65;5.60;;;3.00;86.00;;;;;;5054008;28;20029;-44
2022/02/26 07:07:36;;;;;;;9.93;5.38;;;3.00;86.00;;;;;;5054035;28;20041;-45
2022/02/26 07:10:03;;;;;;;7.75;5.50;;;3.00;86.10;;;;;;5054095;28;20404;-45
2022/02/26 07:12:28;;;;;;;8.27;5.32;;;3.10;86.10;;;;;;5053823;28;20094;-45
2022/02/26 07:14:54;;;;;;;7.00;5.22;;;3.10;86.10;;;;;;5053858;28;20116;-45
2022/02/26 07:17:19;;;;;;;8.80;5.35;;;3.10;86.00;;;;;;5053814;28;20036;-47
2022/02/26 07:19:45;;;;;;;10.30;5.82;;;3.10;85.90;;;;;;5053876;28;20048;-45
2022/02/26 07:22:11;;;;;;;9.48;5.18;;;3.20;85.90;;;;;;5054017;28;20032;-45
2022/02/26 07:24:37;;;;;;;8.35;5.30;;;3.20;85.90;;;;;;5053764;28;20021;-45
2022/02/26 07:27:02;;;;;;;7.35;5.20;;;3.30;86.50;;;;;;5053687;28;20060;-49
2022/02/26 07:29:29;;;;;;;8.68;5.40;;;3.30;85.80;;;;;;5053228;28;20033;-46
2022/02/26 07:31:55;;;;;;;9.60;5.43;;;3.30;85.80;;;;;;5053720;28;20029;-46
2022/02/26 07:34:20;;;;;;;10.50;5.30;;;3.30;85.70;;;;;;5053652;28;20043;-45
2022/02/26 07:36:46;;;;;;;9.43;5.60;;;3.40;85.70;;;;;;5053551;28;20119;-48
2022/02/26 07:39:12;;;;;;;10.25;6.00;;;3.50;85.70;;;;;;5053788;28;20018;-46
2022/02/26 07:41:37;;;;;;;10.90;5.85;;;3.50;85.60;;;;;;5053620;28;20021;-46
2022/02/26 07:44:03;;;;;;;8.82;5.70;;;3.50;85.50;;;;;;5053491;28;20051;-45
2022/02/26 07:46:29;;;;;;;10.13;5.65;;;3.60;85.50;;;;;;5053171;28;20064;-46
2022/02/26 07:48:54;;;;;;;11.50;6.30;;;3.60;85.50;;;;;;5053147;28;20071;-49
2022/02/26 07:51:20;;;;;;;12.98;6.93;;;3.70;85.40;;;;;;5051893;28;20086;-45
2022/02/26 07:53:46;;;;;;;9.90;6.93;;;3.70;85.30;;;;;;5053183;28;20033;-46
2022/02/26 07:56:12;;;;;;;10.18;6.68;;;3.80;85.30;;;;;;5053005;28;20032;-46
2022/02/26 07:58:38;;;;;;;13.75;6.68;;;3.90;85.30;;;;;;5053289;28;20362;-50
2022/02/26 08:01:04;;;;;;;9.30;6.40;;;3.90;85.30;;;;;;5053073;28;20035;-45
2022/02/26 08:03:30;;;;;;;10.45;6.40;;;4.00;85.20;;;;;;5053005;28;20474;-45
2022/02/26 08:05:55;;;;;;;10.35;6.25;;;4.10;85.20;;;;;;5052873;28;20025;-47
2022/02/26 08:08:21;;;;;;;10.45;6.40;;;4.10;85.10;;;;;;5052891;28;20083;-47
2022/02/26 08:10:47;;;;;;;13.13;6.85;;;4.20;85.10;;;;;;5052810;28;20481;-45
2022/02/26 08:13:13;;;;;;;10.90;6.75;;;4.30;85.10;;;;;;5052849;28;20071;-43
2022/02/26 08:15:40;;;;;;;11.13;6.63;;;4.30;85.00;;;;;;5052806;28;20075;-46
2022/02/26 08:18:06;;;;;;;12.38;6.78;;;4.40;84.90;;;;;;5052778;28;20431;-45
2022/02/26 08:20:32;;;;;;;10.35;6.00;;;4.50;84.90;;;;;;5052665;28;20025;-47
2022/02/26 08:22:57;;;;;;;10.73;6.10;;;4.50;84.80;;;;;;5052708;28;20397;-45
2022/02/26 08:25:23;;;;;;;8.80;5.85;;;4.60;84.70;;;;;;5052629;28;20044;-48
2022/02/26 08:27:50;;;;;;;9.63;6.50;;;4.70;84.70;;;;;;5052721;28;20033;-47
2022/02/26 08:30:17;;;;;;;10.65;5.97;;;4.80;84.70;;;;;;5052647;28;20033;-46
2022/02/26 08:32:43;;;;;;;8.50;5.60;;;4.90;84.60;;;;;;5052761;28;20052;-45
2022/02/26 08:35:10;;;;;;;6.90;5.00;;;4.90;84.60;;;;;;5052558;28;20401;-46
2022/02/26 08:37:36;;;;;;;9.55;5.38;;;5.00;84.50;;;;;;5052452;28;20036;-47
2022/02/26 08:40:04;;;;;;;8.35;5.47;;;5.10;84.50;;;;;;5052476;28;20029;-44
2022/02/26 08:42:30;;;;;;;8.48;5.55;;;5.10;84.80;;;;;;5056339;28;20444;-44
2022/02/26 08:44:56;;;;;;;6.55;5.05;;;5.20;84.40;;;;;;5056655;28;20098;-45
2022/02/26 08:47:22;;;;;;;6.35;5.25;;;5.30;84.30;;;;;;5056835;28;20461;-48
2022/02/26 08:49:48;;;;;;;8.18;4.93;;;5.30;84.30;;;;;;5056683;28;20029;-48
2022/02/26 08:52:13;;;;;;;6.70;5.35;;;5.40;84.20;;;;;;5056678;28;20086;-45
2022/02/26 08:54:39;;;;;;;7.65;5.45;;;5.40;84.10;;;;;;5055363;28;20037;-46
2022/02/26 08:57:05;;;;;;;6.88;5.53;;;5.50;84.20;;;;;;5056410;28;20127;-47
2022/02/26 08:59:32;;;;;;;7.10;5.28;;;5.60;84.20;;;;;;5056690;28;20017;-46
2022/02/26 09:01:58;;;;;;;7.68;5.13;;;5.60;84.10;;;;;;5056321;28;20115;-47
2022/02/26 09:04:24;;;;;;;7.32;5.15;;;5.70;84.10;;;;;;5056282;28;20063;-47
2022/02/26 09:06:50;;;;;;;8.00;4.65;;;5.80;84.10;;;;;;5056271;28;20037;-45
2022/02/26 09:09:16;;;;;;;8.18;4.43;;;5.80;84.10;;;;;;5056385;28;20029;-48
2022/02/26 09:11:42;;;;;;;5.38;4.68;;;5.90;84.00;;;;;;5056403;28;20033;-47
2022/02/26 09:14:08;;;;;;;7.30;5.20;;;5.90;84.00;;;;;;5056027;28;20489;-45
2022/02/26 09:16:34;;;;;;;8.85;5.00;;;6.00;83.90;;;;;;5055864;28;20047;-45
2022/02/26 09:19:00;;;;;;;5.82;4.72;;;6.00;83.90;;;;;;5055912;28;20099;-46
2022/02/26 09:21:26;;;;;;;6.65;4.70;;;6.00;83.90;;;;;;5054513;28;20025;-45
2022/02/26 09:23:52;;;;;;;9.32;5.28;;;6.10;84.00;;;;;;5055933;28;20035;-46
2022/02/26 09:26:18;;;;;;;7.43;4.55;;;6.10;83.90;;;;;;5055724;28;20400;-46
2022/02/26 09:28:43;;;;;;;6.95;4.63;;;6.20;83.90;;;;;;5055797;28;20067;-46
2022/02/26 09:31:10;;;;;;;7.60;4.78;;;6.20;83.80;;;;;;5055794;28;20415;-47
2022/02/26 09:33:37;;;;;;;8.27;4.95;;;6.30;83.80;;;;;;5055917;28;20053;-46
2022/02/26 09:36:04;;;;;;;7.63;5.05;;;6.30;83.70;;;;;;5055695;28;20029;-47
2022/02/26 09:38:30;;;;;;;9.00;4.85;;;6.40;83.70;;;;;;5055599;28;20021;-50
2022/02/26 09:40:58;;;;;;;7.68;5.13;;;6.40;83.60;;;;;;5055577;28;20086;-47
2022/02/26 09:43:26;;;;;;;7.75;5.13;;;6.50;84.20;;;;;;5055897;28;20075;-51
2022/02/26 09:45:52;;;;;;;7.82;5.20;;;6.50;83.50;;;;;;5055266;28;20041;-48
2022/02/26 09:48:18;;;;;;;9.52;5.00;;;6.60;83.50;;;;;;5055294;28;20025;-47
2022/02/26 09:50:44;;;;;;;7.03;4.82;;;6.70;83.30;;;;;;5055374;28;20033;-48
2022/02/26 09:53:11;;;;;;;7.97;5.15;;;6.70;83.20;;;;;;5054839;28;20436;-46
2022/02/26 09:55:37;;;;;;;8.45;5.15;;;6.80;83.20;;;;;;5055268;28;20033;-46
2022/02/26 09:58:03;;;;;;;5.90;4.28;;;6.90;83.10;;;;;;5055258;28;20036;-50
2022/02/26 10:00:29;;;;;;;7.53;4.57;;;6.90;83.00;;;;;;5055180;28;20381;-48
2022/02/26 10:02:55;;;;;;;6.07;4.10;;;7.00;83.00;;;;;;5053943;28;20029;-47
2022/02/26 10:05:21;;;;;;;10.05;4.50;;;7.00;82.90;;;;;;5055100;28;20025;-47
2022/02/26 10:07:50;;;;;;;8.68;4.45;;;7.10;82.90;;;;;;5055289;28;20055;-48
2022/02/26 10:10:24;;;;;;;9.68;4.82;;;7.10;82.90;;;;;;5055252;28;20035;-46
2022/02/26 10:12:58;;;;;;;5.80;3.75;;;7.10;82.70;;;;;;5054911;28;20139;-47
2022/02/26 10:15:36;;;;;;;6.60;3.45;;;7.10;82.70;;;;;;5055216;28;20366;-49
2022/02/26 10:18:13;;;;;;;8.52;3.03;;;7.20;82.70;;;;;;5055113;28;20099;-48
2022/02/26 10:20:48;;;;;;;8.35;3.00;;;7.30;82.80;;;;;;5054811;28;20446;-51
2022/02/26 10:23:15;;;;;;;9.55;3.20;;;7.30;82.60;;;;;;5054813;28;20024;-49
2022/02/26 10:25:41;;;;;;;9.00;3.20;;;7.30;82.50;;;;;;5055069;28;20025;-49
2022/02/26 10:28:11;;;;;;;6.53;2.80;;;7.40;82.40;;;;;;5054838;28;20145;-48
2022/02/26 10:30:45;;;;;;;10.18;3.80;;;7.50;82.40;;;;;;5054896;28;20385;-47
2022/02/26 10:33:10;;;;;;;;;;;7.50;82.20;;;;;;5054927;28;20112;-46
2022/02/26 10:35:43;;;;;;;6.05;2.80;;;7.50;82.20;;;;;;5054548;28;20394;-49
2022/02/26 10:38:22;;;;;;;9.10;2.40;;;7.50;82.10;;;;;;5053058;28;20389;-47
2022/02/26 10:41:03;;;;;;;4.75;2.17;;;7.70;82.10;;;;;;5054747;28;20029;-46
2022/02/26 10:43:40;;;;;;;12.30;2.78;;;7.70;81.80;;;;;;5054363;28;20021;-48
2022/02/26 10:46:20;;;;;;;8.52;3.60;;;7.80;81.80;;;;;;5054101;28;20076;-44
2022/02/26 10:48:46;;;;;;;9.57;3.42;;;7.80;81.60;;;;;;5054266;28;20041;-45
2022/02/26 10:51:21;;;;;;;6.72;3.30;;;7.90;81.60;;;;;;5054310;28;20025;-46
2022/02/26 10:53:47;;;;;;;6.45;3.10;;;8.00;81.50;;;;;;5053079;28;20033;-47
2022/02/26 10:56:15;;;;;;;11.35;3.30;;;8.00;81.40;;;;;;5054059;28;20036;-46
2022/02/26 10:58:41;;;;;;;11.90;3.47;;;8.10;81.30;;;;;;5054306;28;20392;-50
2022/02/26 11:01:10;;;;;;;10.45;2.95;;;8.10;81.10;;;;;;5054111;28;20555;-46
2022/02/26 11:03:36;;;;;;;9.52;2.95;;;8.20;81.00;;;;;;5053327;28;20471;-49
2022/02/26 11:06:03;;;;;;;10.05;2.67;;;8.30;80.90;;;;;;5053956;28;20029;-48
2022/02/26 11:08:30;;;;;;;9.18;3.10;;;8.30;80.70;;;;;;5053926;28;20033;-49
2022/02/26 11:10:57;;;;;;;10.38;3.38;;;8.40;80.40;;;;;;5053899;28;20401;-46
2022/02/26 11:13:24;;;;;;;10.98;3.60;;;8.50;80.20;;;;;;5053952;28;20033;-46
2022/02/26 11:15:52;;;;;;;8.40;3.25;;;8.50;80.00;;;;;;5053839;28;20033;-47
2022/02/26 11:18:19;;;;;;;10.98;4.03;;;8.60;79.90;;;;;;5053726;28;20242;-49
2022/02/26 11:20:46;;;;;;;7.95;3.10;;;8.70;79.60;;;;;;5053809;28;20131;-47
2022/02/26 11:23:12;;;;;;;5.78;2.53;;;8.80;79.80;;;;;;5053578;28;20053;-46
2022/02/26 11:25:39;;;;;;;7.68;2.60;;;8.90;80.00;;;;;;5053817;28;20028;-48
2022/02/26 11:28:14;;;;;;;10.85;3.05;;;8.90;79.60;;;;;;5053480;28;20484;-43
2022/02/26 11:30:54;;;;;;;9.05;2.90;;;8.90;79.10;;;;;;5053514;28;20048;-48
2022/02/26 11:33:20;;;;;;;13.05;3.00;;;8.90;79.30;;;;;;5053577;28;20064;-46
2022/02/26 11:35:57;;;;;;;10.50;2.50;;;8.90;78.50;;;;;;5053358;28;20058;-48
2022/02/26 11:38:26;;;;;;;9.48;2.15;;;9.00;78.40;;;;;;5053517;28;20021;-49
2022/02/26 11:41:19;;;;;;;10.30;2.20;;;9.00;78.20;;;;;;5053563;28;20422;-46
2022/02/26 11:43:47;;;;;;;7.13;2.30;;;9.00;77.80;;;;;;5053238;28;20036;-47
2022/02/26 11:46:21;;;;;;;8.98;2.28;;;9.00;77.50;;;;;;5053025;28;20429;-48
2022/02/26 11:48:49;;;;;;;6.82;2.30;;;9.00;77.50;;;;;;5053122;28;20086;-49
2022/02/26 11:51:15;;;;;;;9.10;2.50;;;9.00;77.20;;;;;;5052951;28;20025;-45
2022/02/26 11:53:45;;;;;;;9.68;2.72;;;9.00;78.00;;;;;;5052985;28;20028;-48
2022/02/26 11:56:11;;;;;;;7.00;2.10;;;9.00;77.50;;;;;;5053006;28;20028;-46
2022/02/26 11:58:38;;;;;;;8.05;2.03;;;9.00;77.30;;;;;;5052824;28;20495;-49
2022/02/26 12:01:15;;;;;;;8.27;3.05;;;9.00;77.00;;;;;;5053277;28;20510;-47
2022/02/26 12:03:41;;;;;;;8.23;1.90;;;9.10;77.30;;;;;;5053179;28;20592;-49
2022/02/26 12:06:11;;;;;;;6.10;1.80;;;9.20;77.10;;;;;;5053143;28;20025;-47
2022/02/26 12:08:59;;;;;;;5.22;1.75;;;9.30;77.10;;;;;;5053003;28;20041;-49
2022/02/26 12:11:31;;;;;;;6.00;1.77;;;9.40;77.10;;;;;;5052677;28;20025;-46
2022/02/26 12:14:09;;;;;;;11.32;2.10;;;9.40;77.60;;;;;;5052962;28;20484;-44
2022/02/26 12:16:39;;;;;;;5.03;1.65;;;9.40;77.00;;;;;;5052544;28;20405;-46
2022/02/26 12:19:09;;;;;;;5.18;1.58;;;9.50;76.70;;;;;;5052683;28;20029;-48
2022/02/26 12:21:46;;;;;;;7.40;1.88;;;9.50;76.10;;;;;;5052615;28;20029;-48
2022/02/26 12:24:26;;;;;;;6.65;2.00;;;9.50;77.10;;;;;;5052632;28;20057;-46
2022/02/26 12:27:00;;;;;;;6.57;1.90;;;9.50;76.80;;;;;;5052776;28;20468;-50
2022/02/26 12:29:26;;;;;;;8.60;1.50;;;9.50;77.70;;;;;;5052830;28;20033;-49
2022/02/26 12:31:57;;;;;;;4.35;1.50;;;9.60;77.80;;;;;;5052580;28;20040;-46
2022/02/26 12:34:25;;;;;;;6.78;1.88;;;9.60;77.90;;;;;;5052717;28;20032;-45
2022/02/26 12:37:13;;;;;;;9.07;2.10;;;9.60;78.70;;;;;;5052537;28;20029;-48
2022/02/26 12:39:43;;;;;;;8.57;2.78;;;9.60;78.20;;;;;;5052798;28;20495;-46
2022/02/26 12:42:09;;;;;;;8.00;2.25;;;9.60;77.90;;;;;;5052482;28;20501;-46
2022/02/26 12:44:36;;;;;;;10.50;2.28;;;9.70;79.80;;;;;;5052289;28;20032;-47
2022/02/26 12:47:02;;;;;;;7.70;2.00;;;9.70;78.90;;;;;;5052498;28;20029;-46
2022/02/26 12:49:28;;;;;;;8.30;2.53;;;9.80;78.10;;;;;;5052473;28;20031;-47
2022/02/26 12:51:56;;;;;;;8.90;2.40;;;9.90;77.00;;;;;;5051226;28;20091;-47